sensor_id;sensor_type;location;lat;lon;timestamp;pressure;altitude;pressure_sealevel;temperature;humidity
45731;BME280;31440;48.584;13.460;2023-05-29T00:02:49;96883.38;;;14.25;74.38
45731;BME280;31440;48.584;13.460;2023-05-29T00:05:54;96872.47;;;14.00;75.08
45731;BME280;31440;48.584;13.460;2023-05-29T00:08:58;96873.94;;;14.23;72.91
45731;BME280;31440;48.584;13.460;2023-05-29T00:12:03;96881.38;;;14.13;72.96
45731;BME280;31440;48.584;13.460;2023-05-29T00:15:08;96880.63;;;14.28;71.70
45731;BME280;31440;48.584;13.460;2023-05-29T00:18:14;96883.31;;;14.27;72.15
45731;BME280;31440;48.584;13.460;2023-05-29T00:21:18;96870.72;;;14.18;72.27
45731;BME280;31440;48.584;13.460;2023-05-29T00:24:23;96876.09;;;14.15;73.86
45731;BME280;31440;48.584;13.460;2023-05-29T00:27:27;96876.06;;;13.98;76.06
45731;BME280;31440;48.584;13.460;2023-05-29T00:30:31;96875.50;;;13.91;77.49
45731;BME280;31440;48.584;13.460;2023-05-29T00:33:36;96870.38;;;14.07;77.38
45731;BME280;31440;48.584;13.460;2023-05-29T00:36:41;96876.06;;;13.98;78.19
45731;BME280;31440;48.584;13.460;2023-05-29T00:39:45;96871.56;;;13.82;78.89
45731;BME280;31440;48.584;13.460;2023-05-29T00:42:49;96864.69;;;13.99;77.38
45731;BME280;31440;48.584;13.460;2023-05-29T00:45:54;96860.00;;;13.69;81.18
45731;BME280;31440;48.584;13.460;2023-05-29T00:48:59;96863.69;;;13.65;81.37
45731;BME280;31440;48.584;13.460;2023-05-29T00:52:04;96863.91;;;13.42;83.43
45731;BME280;31440;48.584;13.460;2023-05-29T00:55:11;96857.78;;;13.62;80.36
45731;BME280;31440;48.584;13.460;2023-05-29T00:58:15;96859.47;;;13.63;80.86
45731;BME280;31440;48.584;13.460;2023-05-29T01:01:20;96865.38;;;13.85;79.54
45731;BME280;31440;48.584;13.460;2023-05-29T01:04:26;96867.81;;;13.69;81.27
45731;BME280;31440;48.584;13.460;2023-05-29T01:07:32;96873.47;;;13.60;83.26
45731;BME280;31440;48.584;13.460;2023-05-29T01:10:36;96873.06;;;13.50;84.28
45731;BME280;31440;48.584;13.460;2023-05-29T01:13:41;96870.28;;;13.72;82.42
45731;BME280;31440;48.584;13.460;2023-05-29T01:16:50;96879.22;;;13.29;86.66
45731;BME280;31440;48.584;13.460;2023-05-29T01:20:02;96879.16;;;12.92;90.40
45731;BME280;31440;48.584;13.460;2023-05-29T01:23:18;96871.75;;;13.21;86.45
45731;BME280;31440;48.584;13.460;2023-05-29T01:29:50;96878.38;;;12.89;87.64
45731;BME280;31440;48.584;13.460;2023-05-29T01:32:56;96870.63;;;13.27;84.43
45731;BME280;31440;48.584;13.460;2023-05-29T01:36:02;96873.28;;;12.86;87.33
45731;BME280;31440;48.584;13.460;2023-05-29T01:39:06;96865.66;;;13.02;86.04
45731;BME280;31440;48.584;13.460;2023-05-29T01:42:12;96869.09;;;13.03;87.15
45731;BME280;31440;48.584;13.460;2023-05-29T01:45:16;96866.84;;;12.95;87.14
45731;BME280;31440;48.584;13.460;2023-05-29T01:48:23;96868.72;;;13.12;86.34
45731;BME280;31440;48.584;13.460;2023-05-29T01:51:28;96866.13;;;12.92;90.68
45731;BME280;31440;48.584;13.460;2023-05-29T01:54:33;96860.22;;;12.88;90.06
45731;BME280;31440;48.584;13.460;2023-05-29T01:57:37;96852.75;;;12.99;88.65
45731;BME280;31440;48.584;13.460;2023-05-29T02:00:42;96857.38;;;13.13;86.39
45731;BME280;31440;48.584;13.460;2023-05-29T02:03:46;96861.66;;;12.54;89.60
45731;BME280;31440;48.584;13.460;2023-05-29T02:06:51;96857.66;;;12.86;87.46
45731;BME280;31440;48.584;13.460;2023-05-29T02:09:56;96851.63;;;12.66;87.07
45731;BME280;31440;48.584;13.460;2023-05-29T02:13:01;96850.03;;;12.82;85.13
45731;BME280;31440;48.584;13.460;2023-05-29T02:16:06;96845.00;;;12.79;86.34
45731;BME280;31440;48.584;13.460;2023-05-29T02:19:11;96843.50;;;12.73;87.06
45731;BME280;31440;48.584;13.460;2023-05-29T02:22:17;96843.56;;;12.72;89.67
45731;BME280;31440;48.584;13.460;2023-05-29T02:25:21;96839.06;;;12.75;90.21
45731;BME280;31440;48.584;13.460;2023-05-29T02:28:26;96841.63;;;12.57;90.97
45731;BME280;31440;48.584;13.460;2023-05-29T02:31:31;96839.69;;;12.80;88.77
45731;BME280;31440;48.584;13.460;2023-05-29T02:34:35;96839.13;;;12.53;91.04
45731;BME280;31440;48.584;13.460;2023-05-29T02:37:41;96844.53;;;12.49;92.26
45731;BME280;31440;48.584;13.460;2023-05-29T02:40:46;96843.06;;;12.43;94.52
45731;BME280;31440;48.584;13.460;2023-05-29T02:43:50;96839.25;;;12.30;95.59
45731;BME280;31440;48.584;13.460;2023-05-29T02:46:57;96835.09;;;12.46;93.72
45731;BME280;31440;48.584;13.460;2023-05-29T02:50:02;96831.69;;;12.44;93.49
45731;BME280;31440;48.584;13.460;2023-05-29T02:53:08;96831.44;;;12.50;92.00
45731;BME280;31440;48.584;13.460;2023-05-29T02:56:12;96833.69;;;12.60;90.91
45731;BME280;31440;48.584;13.460;2023-05-29T02:59:17;96831.44;;;12.50;91.11
45731;BME280;31440;48.584;13.460;2023-05-29T03:02:21;96837.88;;;12.62;90.29
45731;BME280;31440;48.584;13.460;2023-05-29T03:05:28;96835.63;;;12.34;94.26
45731;BME280;31440;48.584;13.460;2023-05-29T03:08:33;96830.53;;;12.51;94.38
45731;BME280;31440;48.584;13.460;2023-05-29T03:11:38;96837.03;;;12.21;96.79
45731;BME280;31440;48.584;13.460;2023-05-29T03:14:46;96840.41;;;12.01;98.52
45731;BME280;31440;48.584;13.460;2023-05-29T03:17:51;96830.41;;;11.48;100.00
45731;BME280;31440;48.584;13.460;2023-05-29T03:21:01;96836.84;;;12.04;100.00
45731;BME280;31440;48.584;13.460;2023-05-29T03:24:09;96848.53;;;12.15;100.00
45731;BME280;31440;48.584;13.460;2023-05-29T03:27:16;96846.16;;;12.31;100.00
45731;BME280;31440;48.584;13.460;2023-05-29T03:30:22;96836.88;;;11.37;100.00
45731;BME280;31440;48.584;13.460;2023-05-29T03:33:28;96853.53;;;11.33;100.00
45731;BME280;31440;48.584;13.460;2023-05-29T03:36:59;96853.31;;;12.04;100.00
45731;BME280;31440;48.584;13.460;2023-05-29T03:40:05;96860.63;;;12.38;98.02
45731;BME280;31440;48.584;13.460;2023-05-29T03:43:10;96862.03;;;12.25;99.79
45731;BME280;31440;48.584;13.460;2023-05-29T03:46:15;96859.03;;;11.91;100.00
45731;BME280;31440;48.584;13.460;2023-05-29T03:49:20;96860.16;;;11.63;100.00
45731;BME280;31440;48.584;13.460;2023-05-29T03:52:24;96851.75;;;11.78;100.00
45731;BME280;31440;48.584;13.460;2023-05-29T03:55:32;96859.09;;;11.45;100.00
45731;BME280;31440;48.584;13.460;2023-05-29T03:58:37;96855.19;;;12.01;100.00
45731;BME280;31440;48.584;13.460;2023-05-29T04:01:44;96856.88;;;11.58;100.00
45731;BME280;31440;48.584;13.460;2023-05-29T04:04:48;96850.56;;;11.42;100.00
45731;BME280;31440;48.584;13.460;2023-05-29T04:07:53;96865.28;;;12.50;98.36
45731;BME280;31440;48.584;13.460;2023-05-29T04:11:19;96861.47;;;12.39;100.00
45731;BME280;31440;48.584;13.460;2023-05-29T04:14:27;96855.34;;;12.60;99.26
45731;BME280;31440;48.584;13.460;2023-05-29T04:17:33;96861.97;;;12.87;96.18
45731;BME280;31440;48.584;13.460;2023-05-29T04:20:37;96862.81;;;12.68;98.46
45731;BME280;31440;48.584;13.460;2023-05-29T04:23:42;96873.00;;;12.10;100.00
45731;BME280;31440;48.584;13.460;2023-05-29T04:26:47;96875.19;;;12.63;100.00
45731;BME280;31440;48.584;13.460;2023-05-29T04:29:51;96878.56;;;12.65;100.00
45731;BME280;31440;48.584;13.460;2023-05-29T04:32:58;96883.25;;;12.36;100.00
45731;BME280;31440;48.584;13.460;2023-05-29T04:36:05;96882.59;;;12.51;100.00
45731;BME280;31440;48.584;13.460;2023-05-29T04:39:11;96886.31;;;12.86;100.00
45731;BME280;31440;48.584;13.460;2023-05-29T04:42:16;96886.09;;;13.11;100.00
45731;BME280;31440;48.584;13.460;2023-05-29T04:45:21;96886.47;;;13.22;100.00
45731;BME280;31440;48.584;13.460;2023-05-29T04:48:27;96896.41;;;12.53;100.00
45731;BME280;31440;48.584;13.460;2023-05-29T04:51:31;96894.13;;;12.66;100.00
45731;BME280;31440;48.584;13.460;2023-05-29T04:54:36;96897.03;;;12.60;100.00
45731;BME280;31440;48.584;13.460;2023-05-29T04:57:42;96889.84;;;13.24;100.00
45731;BME280;31440;48.584;13.460;2023-05-29T05:00:47;96896.50;;;13.32;100.00
45731;BME280;31440;48.584;13.460;2023-05-29T05:03:52;96898.75;;;13.39;100.00
45731;BME280;31440;48.584;13.460;2023-05-29T05:07:02;96903.72;;;13.45;100.00
45731;BME280;31440;48.584;13.460;2023-05-29T05:10:08;96915.84;;;13.26;100.00
45731;BME280;31440;48.584;13.460;2023-05-29T05:13:13;96918.16;;;13.13;100.00
45731;BME280;31440;48.584;13.460;2023-05-29T05:16:18;96918.47;;;13.26;100.00
45731;BME280;31440;48.584;13.460;2023-05-29T05:19:23;96905.31;;;13.09;100.00
45731;BME280;31440;48.584;13.460;2023-05-29T05:22:27;96926.94;;;13.31;100.00
45731;BME280;31440;48.584;13.460;2023-05-29T05:25:33;96910.00;;;13.60;100.00
45731;BME280;31440;48.584;13.460;2023-05-29T05:28:39;96924.03;;;13.95;100.00
45731;BME280;31440;48.584;13.460;2023-05-29T05:31:44;96922.91;;;14.37;100.00
45731;BME280;31440;48.584;13.460;2023-05-29T05:34:49;96923.31;;;13.91;100.00
45731;BME280;31440;48.584;13.460;2023-05-29T05:37:53;96919.16;;;14.59;98.02
45731;BME280;31440;48.584;13.460;2023-05-29T05:40:58;96910.81;;;14.87;89.22
45731;BME280;31440;48.584;13.460;2023-05-29T05:44:07;96911.44;;;15.58;88.32
45731;BME280;31440;48.584;13.460;2023-05-29T05:47:18;96906.06;;;15.93;82.95
45731;BME280;31440;48.584;13.460;2023-05-29T05:50:23;96911.16;;;15.80;87.86
45731;BME280;31440;48.584;13.460;2023-05-29T05:53:29;96908.00;;;16.05;86.75
45731;BME280;31440;48.584;13.460;2023-05-29T05:56:34;96917.06;;;15.84;85.32
45731;BME280;31440;48.584;13.460;2023-05-29T05:59:39;96920.66;;;16.44;89.18
45731;BME280;31440;48.584;13.460;2023-05-29T06:02:44;96929.06;;;17.39;84.74
45731;BME280;31440;48.584;13.460;2023-05-29T06:05:58;96929.31;;;18.05;81.03
45731;BME280;31440;48.584;13.460;2023-05-29T06:09:03;96926.41;;;18.37;78.80
45731;BME280;31440;48.584;13.460;2023-05-29T06:12:09;96927.56;;;18.60;74.47
45731;BME280;31440;48.584;13.460;2023-05-29T06:15:20;96936.06;;;17.38;77.80
45731;BME280;31440;48.584;13.460;2023-05-29T06:18:24;96937.31;;;16.89;83.40
45731;BME280;31440;48.584;13.460;2023-05-29T06:21:31;96931.94;;;17.34;77.57
45731;BME280;31440;48.584;13.460;2023-05-29T06:24:36;96935.16;;;17.54;74.94
45731;BME280;31440;48.584;13.460;2023-05-29T06:27:40;96938.69;;;17.53;72.68
45731;BME280;31440;48.584;13.460;2023-05-29T06:30:46;96942.66;;;17.88;73.68
45731;BME280;31440;48.584;13.460;2023-05-29T06:33:51;96940.31;;;17.41;74.12
45731;BME280;31440;48.584;13.460;2023-05-29T06:36:56;96936.63;;;18.15;69.34
45731;BME280;31440;48.584;13.460;2023-05-29T06:40:01;96940.53;;;18.63;67.36
45731;BME280;31440;48.584;13.460;2023-05-29T06:43:05;96944.44;;;17.73;74.62
45731;BME280;31440;48.584;13.460;2023-05-29T06:46:15;96951.13;;;18.34;71.91
45731;BME280;31440;48.584;13.460;2023-05-29T06:49:21;96950.38;;;18.99;68.53
45731;BME280;31440;48.584;13.460;2023-05-29T06:52:25;96956.91;;;18.93;73.93
45731;BME280;31440;48.584;13.460;2023-05-29T06:56:03;96953.16;;;18.70;68.44
45731;BME280;31440;48.584;13.460;2023-05-29T06:59:09;96953.66;;;18.22;71.80
45731;BME280;31440;48.584;13.460;2023-05-29T07:02:14;96964.09;;;19.17;67.87
45731;BME280;31440;48.584;13.460;2023-05-29T07:05:20;96952.78;;;19.67;62.14
45731;BME280;31440;48.584;13.460;2023-05-29T07:08:27;96959.69;;;19.17;66.95
45731;BME280;31440;48.584;13.460;2023-05-29T07:11:32;96957.69;;;19.84;66.10
45731;BME280;31440;48.584;13.460;2023-05-29T07:14:37;96952.34;;;19.73;65.03
45731;BME280;31440;48.584;13.460;2023-05-29T07:17:41;96950.13;;;20.65;63.75
45731;BME280;31440;48.584;13.460;2023-05-29T07:20:56;96954.91;;;20.24;60.97
45731;BME280;31440;48.584;13.460;2023-05-29T07:24:03;96961.78;;;21.33;62.85
45731;BME280;31440;48.584;13.460;2023-05-29T07:27:07;96966.47;;;21.40;58.34
45731;BME280;31440;48.584;13.460;2023-05-29T07:30:12;96957.66;;;21.86;55.40
45731;BME280;31440;48.584;13.460;2023-05-29T07:33:17;96963.41;;;22.25;59.84
45731;BME280;31440;48.584;13.460;2023-05-29T07:36:22;96954.34;;;22.61;52.07
45731;BME280;31440;48.584;13.460;2023-05-29T07:39:29;96950.13;;;23.64;61.07
45731;BME280;31440;48.584;13.460;2023-05-29T07:42:36;96957.78;;;23.36;51.22
45731;BME280;31440;48.584;13.460;2023-05-29T07:45:41;96954.00;;;22.86;53.20
45731;BME280;31440;48.584;13.460;2023-05-29T07:48:45;96965.47;;;23.07;49.09
45731;BME280;31440;48.584;13.460;2023-05-29T07:51:51;96951.44;;;23.79;50.74
45731;BME280;31440;48.584;13.460;2023-05-29T07:54:57;96955.88;;;23.69;51.93
45731;BME280;31440;48.584;13.460;2023-05-29T07:58:01;96933.97;;;23.97;46.18
45731;BME280;31440;48.584;13.460;2023-05-29T08:01:06;96941.75;;;22.42;47.97
45731;BME280;31440;48.584;13.460;2023-05-29T08:04:12;96943.97;;;24.24;54.02
45731;BME280;31440;48.584;13.460;2023-05-29T08:07:17;96946.47;;;25.04;54.59
45731;BME280;31440;48.584;13.460;2023-05-29T08:10:22;96949.84;;;24.77;43.63
45731;BME280;31440;48.584;13.460;2023-05-29T08:13:26;96955.38;;;24.65;45.28
45731;BME280;31440;48.584;13.460;2023-05-29T08:16:33;96949.28;;;24.74;46.72
45731;BME280;31440;48.584;13.460;2023-05-29T08:19:37;96954.84;;;24.80;42.56
45731;BME280;31440;48.584;13.460;2023-05-29T08:22:42;96954.09;;;24.09;43.58
45731;BME280;31440;48.584;13.460;2023-05-29T08:25:46;96944.66;;;24.26;43.82
45731;BME280;31440;48.584;13.460;2023-05-29T08:28:52;96938.91;;;25.28;44.26
45731;BME280;31440;48.584;13.460;2023-05-29T08:31:57;96941.56;;;24.80;43.62
45731;BME280;31440;48.584;13.460;2023-05-29T08:35:01;96947.78;;;25.76;51.18
45731;BME280;31440;48.584;13.460;2023-05-29T08:38:07;96949.91;;;25.62;40.99
45731;BME280;31440;48.584;13.460;2023-05-29T08:41:25;96939.03;;;25.17;35.52
45731;BME280;31440;48.584;13.460;2023-05-29T08:44:31;96934.59;;;24.89;40.29
45731;BME280;31440;48.584;13.460;2023-05-29T08:47:40;96943.16;;;26.70;46.04
45731;BME280;31440;48.584;13.460;2023-05-29T08:50:49;96942.69;;;25.45;37.54
45731;BME280;31440;48.584;13.460;2023-05-29T08:53:57;96938.78;;;25.11;43.69
45731;BME280;31440;48.584;13.460;2023-05-29T08:57:02;96935.41;;;26.58;43.24
45731;BME280;31440;48.584;13.460;2023-05-29T09:00:09;96927.03;;;26.44;41.34
45731;BME280;31440;48.584;13.460;2023-05-29T09:03:20;96938.66;;;27.41;44.72
45731;BME280;31440;48.584;13.460;2023-05-29T09:06:26;96936.06;;;27.31;39.60
45731;BME280;31440;48.584;13.460;2023-05-29T09:09:32;96930.13;;;27.38;39.57
45731;BME280;31440;48.584;13.460;2023-05-29T09:12:37;96933.31;;;28.77;43.08
45731;BME280;31440;48.584;13.460;2023-05-29T09:15:41;96932.47;;;28.77;41.37
45731;BME280;31440;48.584;13.460;2023-05-29T09:18:50;96941.00;;;27.44;35.29
45731;BME280;31440;48.584;13.460;2023-05-29T09:22:08;96939.69;;;27.74;34.82
45731;BME280;31440;48.584;13.460;2023-05-29T09:25:13;96939.72;;;29.09;41.81
45731;BME280;31440;48.584;13.460;2023-05-29T09:28:18;96927.97;;;28.85;35.47
45731;BME280;31440;48.584;13.460;2023-05-29T09:31:24;96939.81;;;28.66;35.33
45731;BME280;31440;48.584;13.460;2023-05-29T09:34:30;96937.97;;;28.75;37.04
45731;BME280;31440;48.584;13.460;2023-05-29T09:37:41;96937.09;;;28.58;39.08
45731;BME280;31440;48.584;13.460;2023-05-29T09:40:47;96930.75;;;28.51;32.03
45731;BME280;31440;48.584;13.460;2023-05-29T09:43:51;96929.63;;;28.78;32.50
45731;BME280;31440;48.584;13.460;2023-05-29T09:46:59;96931.19;;;29.29;33.96
45731;BME280;31440;48.584;13.460;2023-05-29T09:50:04;96931.97;;;30.42;38.84
45731;BME280;31440;48.584;13.460;2023-05-29T09:53:23;96939.19;;;29.46;39.30
45731;BME280;31440;48.584;13.460;2023-05-29T09:56:29;96931.56;;;29.26;32.81
45731;BME280;31440;48.584;13.460;2023-05-29T09:59:35;96930.31;;;28.38;33.83
45731;BME280;31440;48.584;13.460;2023-05-29T10:02:40;96934.44;;;30.13;31.50
45731;BME280;31440;48.584;13.460;2023-05-29T10:05:47;96927.84;;;29.11;32.45
45731;BME280;31440;48.584;13.460;2023-05-29T10:08:53;96931.44;;;30.47;39.34
45731;BME280;31440;48.584;13.460;2023-05-29T10:12:00;96918.81;;;30.32;32.11
45731;BME280;31440;48.584;13.460;2023-05-29T10:15:12;96925.78;;;29.86;30.72
45731;BME280;31440;48.584;13.460;2023-05-29T10:18:38;96914.75;;;31.21;33.68
45731;BME280;31440;48.584;13.460;2023-05-29T10:21:44;96919.97;;;31.15;35.83
45731;BME280;31440;48.584;13.460;2023-05-29T10:24:50;96914.47;;;31.68;32.99
45731;BME280;31440;48.584;13.460;2023-05-29T10:27:57;96917.28;;;31.37;30.25
45731;BME280;31440;48.584;13.460;2023-05-29T10:31:08;96911.28;;;31.50;31.39
45731;BME280;31440;48.584;13.460;2023-05-29T10:34:23;96892.63;;;31.71;29.60
45731;BME280;31440;48.584;13.460;2023-05-29T10:37:35;96916.22;;;30.47;31.58
45731;BME280;31440;48.584;13.460;2023-05-29T10:40:42;96905.66;;;29.19;28.34
45731;BME280;31440;48.584;13.460;2023-05-29T10:43:47;96902.19;;;31.22;30.10
45731;BME280;31440;48.584;13.460;2023-05-29T10:50:00;96912.34;;;31.03;29.55
45731;BME280;31440;48.584;13.460;2023-05-29T10:53:09;96908.47;;;31.06;29.14
45731;BME280;31440;48.584;13.460;2023-05-29T10:56:27;96912.06;;;31.59;30.78
45731;BME280;31440;48.584;13.460;2023-05-29T10:59:36;96912.09;;;29.81;32.71
45731;BME280;31440;48.584;13.460;2023-05-29T11:02:41;96903.81;;;30.15;32.70
45731;BME280;31440;48.584;13.460;2023-05-29T11:05:59;96905.28;;;29.46;33.09
45731;BME280;31440;48.584;13.460;2023-05-29T11:09:04;96907.06;;;30.64;32.44
45731;BME280;31440;48.584;13.460;2023-05-29T11:12:16;96901.16;;;30.15;31.12
45731;BME280;31440;48.584;13.460;2023-05-29T11:19:17;96902.31;;;29.00;33.14
45731;BME280;31440;48.584;13.460;2023-05-29T11:22:27;96907.88;;;28.49;32.65
45731;BME280;31440;48.584;13.460;2023-05-29T11:25:38;96909.50;;;30.51;30.16
45731;BME280;31440;48.584;13.460;2023-05-29T11:28:43;96898.34;;;30.93;29.83
45731;BME280;31440;48.584;13.460;2023-05-29T11:31:49;96896.84;;;31.14;30.78
45731;BME280;31440;48.584;13.460;2023-05-29T11:34:59;96895.50;;;30.64;28.66
45731;BME280;31440;48.584;13.460;2023-05-29T11:38:06;96897.66;;;31.22;29.64
45731;BME280;31440;48.584;13.460;2023-05-29T11:41:11;96895.66;;;31.54;28.77
45731;BME280;31440;48.584;13.460;2023-05-29T11:44:16;96900.13;;;31.01;27.56
45731;BME280;31440;48.584;13.460;2023-05-29T11:47:21;96888.13;;;31.20;29.59
45731;BME280;31440;48.584;13.460;2023-05-29T11:50:29;96892.50;;;31.35;29.74
45731;BME280;31440;48.584;13.460;2023-05-29T11:53:34;96896.00;;;30.36;27.92
45731;BME280;31440;48.584;13.460;2023-05-29T11:56:39;96894.00;;;31.67;29.80
45731;BME280;31440;48.584;13.460;2023-05-29T11:59:45;96888.66;;;31.67;28.56
45731;BME280;31440;48.584;13.460;2023-05-29T12:02:51;96891.34;;;32.41;28.06
45731;BME280;31440;48.584;13.460;2023-05-29T12:05:56;96881.59;;;31.14;27.49
45731;BME280;31440;48.584;13.460;2023-05-29T12:09:01;96884.16;;;31.83;26.35
45731;BME280;31440;48.584;13.460;2023-05-29T12:12:08;96881.56;;;28.94;30.11
45731;BME280;31440;48.584;13.460;2023-05-29T12:15:13;96880.34;;;30.25;26.20
45731;BME280;31440;48.584;13.460;2023-05-29T12:18:18;96870.50;;;31.17;26.97
45731;BME280;31440;48.584;13.460;2023-05-29T12:21:23;96881.53;;;32.33;27.34
45731;BME280;31440;48.584;13.460;2023-05-29T12:24:28;96884.19;;;32.84;27.30
45731;BME280;31440;48.584;13.460;2023-05-29T12:27:47;96879.03;;;31.58;27.60
45731;BME280;31440;48.584;13.460;2023-05-29T12:30:58;96881.50;;;31.45;26.38
45731;BME280;31440;48.584;13.460;2023-05-29T12:34:11;96867.66;;;31.86;26.22
45731;BME280;31440;48.584;13.460;2023-05-29T12:37:22;96866.38;;;32.11;26.56
45731;BME280;31440;48.584;13.460;2023-05-29T12:40:27;96869.25;;;31.95;28.00
45731;BME280;31440;48.584;13.460;2023-05-29T12:43:32;96869.88;;;30.38;29.58
45731;BME280;31440;48.584;13.460;2023-05-29T12:46:38;96870.41;;;31.48;28.25
45731;BME280;31440;48.584;13.460;2023-05-29T12:49:43;96866.16;;;31.39;28.28
45731;BME280;31440;48.584;13.460;2023-05-29T12:53:03;96866.81;;;30.50;27.99
45731;BME280;31440;48.584;13.460;2023-05-29T12:56:08;96868.41;;;31.27;29.23
45731;BME280;31440;48.584;13.460;2023-05-29T12:59:13;96855.69;;;32.32;28.88
45731;BME280;31440;48.584;13.460;2023-05-29T13:02:18;96862.09;;;32.53;27.28
45731;BME280;31440;48.584;13.460;2023-05-29T13:05:23;96851.88;;;32.99;27.16
45731;BME280;31440;48.584;13.460;2023-05-29T13:08:28;96851.41;;;34.13;26.50
45731;BME280;31440;48.584;13.460;2023-05-29T13:11:32;96852.75;;;33.90;25.87
45731;BME280;31440;48.584;13.460;2023-05-29T13:14:40;96843.47;;;33.64;24.59
45731;BME280;31440;48.584;13.460;2023-05-29T13:17:45;96852.88;;;33.19;28.24
45731;BME280;31440;48.584;13.460;2023-05-29T13:20:50;96848.69;;;32.31;28.25
45731;BME280;31440;48.584;13.460;2023-05-29T13:23:55;96855.97;;;33.23;27.47
45731;BME280;31440;48.584;13.460;2023-05-29T13:26:59;96842.13;;;31.60;26.90
45731;BME280;31440;48.584;13.460;2023-05-29T13:30:05;96860.94;;;30.23;27.83
45731;BME280;31440;48.584;13.460;2023-05-29T13:33:10;96850.00;;;32.99;27.82
45731;BME280;31440;48.584;13.460;2023-05-29T13:36:15;96846.94;;;32.81;27.66
45731;BME280;31440;48.584;13.460;2023-05-29T13:39:20;96842.50;;;32.95;26.25
45731;BME280;31440;48.584;13.460;2023-05-29T13:42:25;96839.75;;;33.65;27.42
45731;BME280;31440;48.584;13.460;2023-05-29T13:45:29;96836.72;;;34.90;25.64
45731;BME280;31440;48.584;13.460;2023-05-29T13:48:34;96836.47;;;34.72;25.31
45731;BME280;31440;48.584;13.460;2023-05-29T13:51:39;96827.94;;;34.55;24.37
45731;BME280;31440;48.584;13.460;2023-05-29T13:54:44;96827.13;;;33.10;24.25
45731;BME280;31440;48.584;13.460;2023-05-29T13:57:48;96818.06;;;31.23;26.01
45731;BME280;31440;48.584;13.460;2023-05-29T14:00:53;96825.63;;;30.73;27.83
45731;BME280;31440;48.584;13.460;2023-05-29T14:03:59;96831.75;;;30.67;28.30
45731;BME280;31440;48.584;13.460;2023-05-29T14:07:04;96816.78;;;30.19;29.88
45731;BME280;31440;48.584;13.460;2023-05-29T14:10:09;96822.50;;;29.06;31.15
45731;BME280;31440;48.584;13.460;2023-05-29T14:13:16;96824.25;;;29.29;29.65
45731;BME280;31440;48.584;13.460;2023-05-29T14:16:21;96829.31;;;28.51;30.29
45731;BME280;31440;48.584;13.460;2023-05-29T14:19:26;96825.81;;;28.91;32.36
45731;BME280;31440;48.584;13.460;2023-05-29T14:22:30;96820.47;;;27.92;33.42
45731;BME280;31440;48.584;13.460;2023-05-29T14:25:36;96824.53;;;30.06;29.87
45731;BME280;31440;48.584;13.460;2023-05-29T14:28:41;96814.47;;;31.89;27.80
45731;BME280;31440;48.584;13.460;2023-05-29T14:31:46;96819.91;;;32.47;25.92
45731;BME280;31440;48.584;13.460;2023-05-29T14:34:50;96811.97;;;32.38;25.99
45731;BME280;31440;48.584;13.460;2023-05-29T14:37:57;96813.94;;;32.51;26.50
45731;BME280;31440;48.584;13.460;2023-05-29T14:41:02;96808.91;;;32.63;24.47
45731;BME280;31440;48.584;13.460;2023-05-29T14:44:14;96797.97;;;33.76;23.80
45731;BME280;31440;48.584;13.460;2023-05-29T14:47:19;96805.44;;;34.22;23.24
45731;BME280;31440;48.584;13.460;2023-05-29T14:50:23;96802.63;;;32.98;27.48
45731;BME280;31440;48.584;13.460;2023-05-29T14:53:28;96806.44;;;34.14;28.38
45731;BME280;31440;48.584;13.460;2023-05-29T14:56:33;96802.84;;;33.87;25.60
45731;BME280;31440;48.584;13.460;2023-05-29T14:59:37;96798.78;;;32.86;26.26
45731;BME280;31440;48.584;13.460;2023-05-29T15:02:42;96791.50;;;32.37;25.38
45731;BME280;31440;48.584;13.460;2023-05-29T15:05:47;96799.97;;;30.79;26.87
45731;BME280;31440;48.584;13.460;2023-05-29T15:08:51;96777.44;;;29.89;26.75
45731;BME280;31440;48.584;13.460;2023-05-29T15:11:56;96801.28;;;29.67;26.78
45731;BME280;31440;48.584;13.460;2023-05-29T15:15:02;96800.75;;;28.44;28.07
45731;BME280;31440;48.584;13.460;2023-05-29T15:18:07;96799.78;;;28.69;27.29
45731;BME280;31440;48.584;13.460;2023-05-29T15:21:12;96783.34;;;28.15;27.89
45731;BME280;31440;48.584;13.460;2023-05-29T15:24:17;96790.09;;;29.09;29.09
45731;BME280;31440;48.584;13.460;2023-05-29T15:27:21;96786.59;;;30.79;27.31
45731;BME280;31440;48.584;13.460;2023-05-29T15:30:26;96787.91;;;31.94;26.60
45731;BME280;31440;48.584;13.460;2023-05-29T15:33:31;96783.88;;;32.05;27.78
45731;BME280;31440;48.584;13.460;2023-05-29T15:36:35;96787.31;;;31.99;23.61
45731;BME280;31440;48.584;13.460;2023-05-29T15:39:40;96791.31;;;31.44;30.15
45731;BME280;31440;48.584;13.460;2023-05-29T15:42:45;96777.91;;;32.24;26.20
45731;BME280;31440;48.584;13.460;2023-05-29T15:45:50;96778.00;;;31.65;23.25
45731;BME280;31440;48.584;13.460;2023-05-29T15:48:54;96783.44;;;32.37;26.11
45731;BME280;31440;48.584;13.460;2023-05-29T15:51:59;96770.41;;;31.84;27.16
45731;BME280;31440;48.584;13.460;2023-05-29T15:55:04;96775.94;;;31.97;24.31
45731;BME280;31440;48.584;13.460;2023-05-29T15:58:09;96766.72;;;31.55;24.53
45731;BME280;31440;48.584;13.460;2023-05-29T16:01:14;96769.41;;;31.55;26.62
45731;BME280;31440;48.584;13.460;2023-05-29T16:04:19;96770.03;;;31.28;26.03
45731;BME280;31440;48.584;13.460;2023-05-29T16:07:24;96769.59;;;31.39;26.08
45731;BME280;31440;48.584;13.460;2023-05-29T16:10:28;96770.59;;;31.67;27.17
45731;BME280;31440;48.584;13.460;2023-05-29T16:13:33;96767.00;;;30.56;24.32
45731;BME280;31440;48.584;13.460;2023-05-29T16:16:39;96764.75;;;30.67;25.47
45731;BME280;31440;48.584;13.460;2023-05-29T16:19:44;96778.25;;;30.74;29.04
45731;BME280;31440;48.584;13.460;2023-05-29T16:22:49;96768.50;;;30.81;25.74